Time;durP1;ratioP1;P1;durP2;ratioP2;P2;SDS_P1;SDS_P2;PMS_P1;PMS_P2;Temp;Humidity;BMP_temperature;BMP_pressure;BME280_temperature;BME280_humidity;BME280_pressure;Samples;Min_cycle;Max_cycle;Signal;HPM_P1;HPM_P2
2021/04/07 00:01:04;;;;;;;6.00;2.43;;;1.50;99.90;;;;;;5036187;28;20178;-91
2021/04/07 00:03:45;;;;;;;9.40;2.90;;;1.50;99.90;;;;;;5037436;28;20278;-90
2021/04/07 00:06:11;;;;;;;5.07;2.20;;;1.40;99.90;;;;;;5035908;28;20187;-94
2021/04/07 00:08:37;;;;;;;5.57;2.00;;;1.40;99.90;;;;;;5036086;28;20634;-93
2021/04/07 00:11:02;;;;;;;6.23;2.30;;;1.30;99.90;;;;;;5035662;28;20232;-93
2021/04/07 00:13:40;;;;;;;6.70;3.00;;;1.30;99.90;;;;;;5034762;28;20177;-93
2021/04/07 00:16:07;;;;;;;7.50;2.60;;;1.20;99.90;;;;;;5035955;28;20272;-92
2021/04/07 00:18:33;;;;;;;7.10;2.37;;;1.20;99.90;;;;;;5036178;28;20177;-94
2021/04/07 00:20:59;;;;;;;7.27;2.43;;;1.30;99.90;;;;;;5035744;28;20239;-92
2021/04/07 00:23:29;;;;;;;5.30;2.30;;;1.20;99.90;;;;;;5035755;28;20237;-91
2021/04/07 00:25:54;;;;;;;7.30;2.60;;;1.20;99.90;;;;;;5035860;28;20175;-93
2021/04/07 00:28:21;;;;;;;7.03;2.63;;;1.20;99.90;;;;;;5036025;28;20178;-93
2021/04/07 00:30:48;;;;;;;6.77;2.40;;;1.20;99.90;;;;;;5035695;28;20179;-93
2021/04/07 00:33:19;;;;;;;7.00;2.53;;;1.20;99.90;;;;;;5035595;28;20559;-96
2021/04/07 00:35:45;;;;;;;6.17;2.27;;;1.30;99.90;;;;;;5035651;28;20192;-96
2021/04/07 00:38:12;;;;;;;6.23;2.33;;;1.20;99.90;;;;;;5035772;28;20184;-92
2021/04/07 00:40:38;;;;;;;4.03;2.30;;;1.30;99.90;;;;;;5035603;28;20185;-94
2021/04/07 00:43:04;;;;;;;6.60;2.70;;;1.30;99.90;;;;;;5032259;28;20217;-93
2021/04/07 00:45:40;;;;;;;6.03;3.10;;;1.20;99.90;;;;;;5015549;28;20183;-92
2021/04/07 00:48:06;;;;;;;5.87;2.50;;;1.20;99.90;;;;;;5015477;28;20186;-93
2021/04/07 00:50:33;;;;;;;6.50;2.20;;;1.20;99.90;;;;;;5015335;28;20183;-92
2021/04/07 00:52:59;;;;;;;10.50;2.77;;;1.10;99.90;;;;;;5015406;28;20186;-92
2021/04/07 00:55:32;;;;;;;6.07;2.40;;;1.10;99.90;;;;;;5015322;28;20189;-93
2021/04/07 00:57:58;;;;;;;5.10;2.33;;;1.10;99.90;;;;;;5015454;28;20178;-93
2021/04/07 01:00:25;;;;;;;7.13;2.77;;;1.10;99.90;;;;;;5015161;28;20553;-92
2021/04/07 01:02:53;;;;;;;8.60;2.90;;;1.20;99.90;;;;;;5014922;28;20183;-92
2021/04/07 01:05:23;;;;;;;5.83;2.53;;;1.20;99.90;;;;;;5015701;28;20218;-94
2021/04/07 01:07:49;;;;;;;8.30;2.50;;;1.20;99.90;;;;;;5015820;28;20619;-96
2021/04/07 01:10:16;;;;;;;5.87;2.30;;;1.20;99.90;;;;;;5015932;28;20200;-96
2021/04/07 01:12:43;;;;;;;8.57;2.57;;;1.20;99.90;;;;;;5015396;28;20234;-96
2021/04/07 01:15:17;;;;;;;7.73;2.47;;;1.20;99.90;;;;;;5015355;28;20218;-96
2021/04/07 01:17:43;;;;;;;6.20;2.53;;;1.30;99.90;;;;;;5015160;28;20179;-94
2021/04/07 01:20:11;;;;;;;3.93;1.90;;;1.30;99.90;;;;;;5015187;28;20288;-95
2021/04/07 01:22:37;;;;;;;7.27;2.93;;;1.30;99.90;;;;;;5014751;28;20213;-94
2021/04/07 01:25:12;;;;;;;9.13;2.40;;;1.30;99.90;;;;;;5014431;28;20218;-94
2021/04/07 01:27:41;;;;;;;9.17;2.57;;;1.30;99.90;;;;;;5014803;28;20174;-92
2021/04/07 01:30:14;;;;;;;9.57;3.10;;;1.30;99.90;;;;;;5014783;28;20277;-96
2021/04/07 01:32:39;;;;;;;7.93;2.43;;;1.30;99.90;;;;;;5015078;28;20262;-96
2021/04/07 01:35:12;;;;;;;9.83;3.00;;;1.30;99.90;;;;;;5014780;28;20281;-94
2021/04/07 01:37:39;;;;;;;7.73;2.93;;;1.30;99.90;;;;;;5014690;28;20168;-95
2021/04/07 01:40:10;;;;;;;10.83;2.80;;;1.30;99.90;;;;;;5014258;28;20186;-92
2021/04/07 01:42:36;;;;;;;7.43;2.57;;;1.30;99.90;;;;;;5014803;28;20518;-93
2021/04/07 01:45:07;;;;;;;3.93;2.17;;;1.30;99.90;;;;;;5019296;28;20225;-93
2021/04/07 01:47:34;;;;;;;9.57;2.50;;;1.30;99.90;;;;;;5034033;28;20238;-92
2021/04/07 01:50:01;;;;;;;6.10;2.83;;;1.30;99.90;;;;;;5034337;28;20183;-93
2021/04/07 01:52:28;;;;;;;10.23;2.90;;;1.30;99.90;;;;;;5034617;28;20182;-93
2021/04/07 01:54:54;;;;;;;7.17;2.13;;;1.20;99.90;;;;;;5034325;28;20509;-93
2021/04/07 01:57:21;;;;;;;8.73;2.50;;;1.20;99.90;;;;;;5034339;28;20182;-94
2021/04/07 01:59:47;;;;;;;7.70;2.33;;;1.20;99.90;;;;;;5034312;28;20274;-92
2021/04/07 02:02:12;;;;;;;9.47;2.60;;;1.10;99.90;;;;;;5034213;28;20206;-92
2021/04/07 02:04:39;;;;;;;7.90;2.23;;;1.10;99.90;;;;;;5034268;28;20206;-94
2021/04/07 02:07:15;;;;;;;6.07;2.30;;;1.20;99.90;;;;;;5034295;28;20262;-92
2021/04/07 02:09:42;;;;;;;7.70;1.97;;;1.20;99.90;;;;;;5034472;28;20195;-93
2021/04/07 02:12:08;;;;;;;5.97;2.37;;;1.20;99.90;;;;;;5033987;28;20268;-93
2021/04/07 02:14:39;;;;;;;7.93;2.40;;;1.20;99.90;;;;;;5033905;28;20183;-92
2021/04/07 02:17:05;;;;;;;11.57;2.57;;;1.20;99.90;;;;;;5035039;28;20181;-93
2021/04/07 02:19:33;;;;;;;9.43;2.53;;;1.20;99.90;;;;;;5034744;28;20250;-93
2021/04/07 02:22:25;;;;;;;7.40;2.43;;;1.10;99.90;;;;;;5034676;28;20202;-93
2021/04/07 02:25:04;;;;;;;6.63;1.90;;;1.10;99.90;;;;;;5031497;28;20214;-93
2021/04/07 02:27:30;;;;;;;6.93;2.40;;;1.10;99.90;;;;;;5035034;28;20174;-93
2021/04/07 02:29:57;;;;;;;7.17;2.40;;;1.00;99.90;;;;;;5034430;28;20219;-93
2021/04/07 02:32:24;;;;;;;7.80;2.03;;;1.10;99.90;;;;;;5034216;28;20174;-93
2021/04/07 02:35:03;;;;;;;7.37;2.23;;;1.00;99.90;;;;;;5034694;28;20178;-92
2021/04/07 02:37:30;;;;;;;6.90;1.97;;;1.00;99.90;;;;;;5038366;28;20182;-93
2021/04/07 02:39:58;;;;;;;11.33;2.30;;;1.00;99.90;;;;;;5037765;28;20190;-96
2021/04/07 02:42:23;;;;;;;10.73;2.50;;;0.90;99.90;;;;;;5037831;28;20216;-94
2021/04/07 02:44:55;;;;;;;7.93;2.57;;;0.90;99.90;;;;;;5022833;28;20236;-93
2021/04/07 02:47:21;;;;;;;7.10;2.10;;;0.90;99.90;;;;;;5017952;28;20179;-95
2021/04/07 02:49:47;;;;;;;9.27;2.67;;;0.90;99.90;;;;;;5017816;28;20193;-93
2021/04/07 02:52:12;;;;;;;6.23;2.30;;;0.90;99.90;;;;;;5017654;28;20188;-93
2021/04/07 02:54:41;;;;;;;12.13;2.70;;;0.90;99.90;;;;;;5017585;28;20248;-93
2021/04/07 02:57:07;;;;;;;6.60;2.17;;;0.80;99.90;;;;;;5017298;28;20646;-92
2021/04/07 02:59:34;;;;;;;7.93;2.50;;;0.80;99.90;;;;;;5017814;28;20179;-92
2021/04/07 03:02:00;;;;;;;4.87;2.20;;;0.80;99.90;;;;;;5017704;28;20625;-93
2021/04/07 03:04:26;;;;;;;13.63;3.27;;;0.80;99.90;;;;;;5017875;28;20209;-93
2021/04/07 03:06:51;;;;;;;12.43;3.00;;;0.70;99.90;;;;;;5017749;28;20197;-92
2021/04/07 03:09:17;;;;;;;12.23;2.80;;;0.80;99.90;;;;;;5017684;28;20287;-92
2021/04/07 03:11:43;;;;;;;7.67;2.53;;;0.80;99.90;;;;;;5017046;28;20252;-92
2021/04/07 03:14:08;;;;;;;8.93;2.80;;;0.80;99.90;;;;;;5017321;28;20213;-93
2021/04/07 03:16:36;;;;;;;7.63;2.80;;;0.80;99.90;;;;;;5017052;28;20186;-92
2021/04/07 03:19:01;;;;;;;6.80;2.87;;;0.80;99.90;;;;;;5017090;28;20174;-92
2021/04/07 03:21:27;;;;;;;8.33;3.40;;;0.70;99.90;;;;;;5017407;28;20184;-92
2021/04/07 03:23:53;;;;;;;11.17;3.53;;;0.70;99.90;;;;;;5017221;28;20214;-93
2021/04/07 03:26:20;;;;;;;8.23;3.20;;;0.70;99.90;;;;;;5016945;28;20180;-92
2021/04/07 03:28:46;;;;;;;10.67;3.83;;;0.70;99.90;;;;;;5017105;28;20562;-93
2021/04/07 03:31:12;;;;;;;12.70;3.97;;;0.70;99.90;;;;;;5017171;28;20174;-92
2021/04/07 03:33:38;;;;;;;10.37;3.87;;;0.70;99.90;;;;;;5017443;28;20189;-91
2021/04/07 03:36:08;;;;;;;13.40;4.53;;;0.70;99.90;;;;;;5018470;28;20182;-92
2021/04/07 03:38:34;;;;;;;8.07;3.80;;;0.70;99.90;;;;;;5036715;28;20223;-91
2021/04/07 03:41:01;;;;;;;14.30;4.77;;;0.70;99.90;;;;;;5036366;28;20261;-92
2021/04/07 03:43:27;;;;;;;13.87;4.83;;;0.70;99.90;;;;;;5036561;28;20212;-91
2021/04/07 03:45:57;;;;;;;13.80;4.80;;;0.70;99.90;;;;;;5036151;28;20190;-92
2021/04/07 03:48:25;;;;;;;9.40;4.07;;;0.70;99.90;;;;;;5036643;28;20201;-92
2021/04/07 03:50:51;;;;;;;15.00;4.27;;;0.80;99.90;;;;;;5035818;28;20190;-91
2021/04/07 03:53:18;;;;;;;9.90;4.10;;;0.70;99.90;;;;;;5036788;28;20512;-91
2021/04/07 03:55:52;;;;;;;11.57;3.70;;;0.70;99.90;;;;;;5036198;28;20240;-92
2021/04/07 03:58:18;;;;;;;11.03;3.53;;;0.70;99.90;;;;;;5036208;28;20269;-93
2021/04/07 04:00:44;;;;;;;10.27;4.13;;;0.70;99.90;;;;;;5036347;28;20605;-91
2021/04/07 04:03:11;;;;;;;12.20;3.90;;;0.70;99.90;;;;;;5036054;28;20712;-93
2021/04/07 04:05:42;;;;;;;12.97;3.73;;;0.70;99.90;;;;;;5036907;28;20211;-91
2021/04/07 04:08:09;;;;;;;14.60;4.07;;;0.80;99.90;;;;;;5035905;28;20179;-92
2021/04/07 04:10:35;;;;;;;9.53;3.60;;;0.70;99.90;;;;;;5036051;28;20191;-92
2021/04/07 04:13:05;;;;;;;16.13;3.87;;;0.70;99.90;;;;;;5035856;28;20227;-94
2021/04/07 04:15:39;;;;;;;13.07;4.17;;;0.70;99.90;;;;;;5035959;28;20194;-93
2021/04/07 04:18:07;;;;;;;10.87;3.27;;;0.70;99.90;;;;;;5035898;28;20193;-92
2021/04/07 04:20:33;;;;;;;9.70;4.20;;;0.70;99.90;;;;;;5035722;28;20670;-92
2021/04/07 04:22:58;;;;;;;10.93;3.63;;;0.70;99.90;;;;;;5035514;28;20190;-91
2021/04/07 04:25:25;;;;;;;13.20;3.93;;;0.70;99.90;;;;;;5035712;28;20232;-91
2021/04/07 04:27:51;;;;;;;14.33;3.97;;;0.70;99.90;;;;;;5035946;28;20175;-91
2021/04/07 04:30:21;;;;;;;10.33;3.57;;;0.70;99.90;;;;;;5035483;28;20196;-91
2021/04/07 04:32:48;;;;;;;7.57;3.50;;;0.60;99.90;;;;;;5035486;28;20176;-90
2021/04/07 04:35:37;;;;;;;13.97;3.50;;;0.70;99.90;;;;;;5032188;28;20192;-93
2021/04/07 04:38:05;;;;;;;8.77;3.17;;;0.70;99.90;;;;;;5025079;28;20267;-96
2021/04/07 04:40:31;;;;;;;12.97;3.47;;;0.70;99.90;;;;;;5008879;28;20187;-96
2021/04/07 04:42:57;;;;;;;13.50;3.40;;;0.60;99.90;;;;;;5030002;28;20220;-96
2021/04/07 04:45:27;;;;;;;12.17;3.00;;;0.60;99.90;;;;;;5045102;28;20191;-96
2021/04/07 04:47:59;;;;;;;14.13;3.27;;;0.60;99.90;;;;;;5047029;28;20189;-96
2021/04/07 04:50:28;;;;;;;9.60;3.30;;;0.70;99.90;;;;;;5030929;28;20212;-96
2021/04/07 04:52:56;;;;;;;12.63;3.77;;;0.70;99.90;;;;;;5045695;28;20174;-96
2021/04/07 04:55:24;;;;;;;11.37;3.23;;;0.70;99.90;;;;;;5029758;28;20216;-96
2021/04/07 04:57:53;;;;;;;12.17;3.67;;;0.70;99.90;;;;;;5047383;28;20608;-96
2021/04/07 05:00:25;;;;;;;5.53;3.30;;;0.70;99.90;;;;;;5050604;28;20185;-96
2021/04/07 05:02:52;;;;;;;12.30;3.40;;;0.70;99.90;;;;;;5064442;28;20170;-96
2021/04/07 05:05:17;;;;;;;12.53;3.37;;;0.70;99.90;;;;;;5063990;28;20185;-96
2021/04/07 05:07:43;;;;;;;12.83;3.60;;;0.70;99.90;;;;;;5064951;28;20658;-96
2021/04/07 05:10:09;;;;;;;12.67;3.37;;;0.70;99.90;;;;;;5052066;28;20507;-96
2021/04/07 05:12:44;;;;;;;13.23;3.17;;;0.70;99.90;;;;;;5047388;28;20241;-96
2021/04/07 05:15:16;;;;;;;9.47;3.07;;;0.70;99.90;;;;;;5046610;28;20183;-96
2021/04/07 05:17:44;;;;;;;11.30;3.10;;;0.70;99.90;;;;;;5046581;28;20186;-96
2021/04/07 05:20:15;;;;;;;11.30;2.80;;;0.70;99.90;;;;;;5042973;28;20213;-96
2021/04/07 05:22:43;;;;;;;11.80;3.33;;;0.70;99.90;;;;;;5040887;28;20185;-96
2021/04/07 05:25:16;;;;;;;8.50;2.63;;;0.70;99.90;;;;;;5040551;28;20232;-96
2021/04/07 05:27:54;;;;;;;11.43;2.87;;;0.80;99.90;;;;;;5048755;28;20243;-96
2021/04/07 05:30:26;;;;;;;11.00;2.80;;;0.80;99.90;;;;;;5041504;28;20219;-96
2021/04/07 05:32:59;;;;;;;9.90;3.00;;;0.80;99.90;;;;;;5043522;28;20239;-96
2021/04/07 05:35:30;;;;;;;10.57;2.90;;;0.90;99.90;;;;;;5041927;28;20213;-96
2021/04/07 05:38:01;;;;;;;6.57;3.17;;;0.90;99.90;;;;;;5045290;28;20189;-96
2021/04/07 05:40:30;;;;;;;9.80;3.23;;;0.90;99.90;;;;;;5043871;28;20205;-96
2021/04/07 05:43:01;;;;;;;11.33;3.13;;;1.00;99.90;;;;;;5046789;28;20186;-96
2021/04/07 05:45:46;;;;;;;7.77;3.27;;;1.00;99.90;;;;;;5046869;28;20189;-96
2021/04/07 05:48:15;;;;;;;9.10;3.20;;;1.00;99.90;;;;;;5060876;23;20651;-90
2021/04/07 05:50:51;;;;;;;10.87;3.07;;;1.00;99.90;;;;;;5034977;28;20167;-91
2021/04/07 05:53:17;;;;;;;10.13;3.73;;;1.10;99.90;;;;;;5008582;28;20239;-91
2021/04/07 05:55:48;;;;;;;11.83;3.27;;;1.20;99.90;;;;;;4993728;28;20175;-91
2021/04/07 05:58:15;;;;;;;8.30;2.73;;;1.20;99.90;;;;;;4993985;28;20173;-90
2021/04/07 06:00:43;;;;;;;10.90;3.30;;;1.30;99.90;;;;;;4994145;28;20621;-92
2021/04/07 06:03:09;;;;;;;11.67;3.87;;;1.30;99.90;;;;;;4994003;28;20341;-90
2021/04/07 06:05:40;;;;;;;9.80;3.40;;;1.30;99.90;;;;;;4994325;28;20227;-91
2021/04/07 06:08:07;;;;;;;12.47;3.93;;;1.20;99.90;;;;;;4994235;28;20177;-93
2021/04/07 06:10:35;;;;;;;14.00;3.20;;;1.20;99.90;;;;;;4999491;28;20183;-92
2021/04/07 06:13:01;;;;;;;15.03;3.77;;;1.20;99.90;;;;;;4998395;28;20171;-91
2021/04/07 06:15:28;;;;;;;13.80;3.33;;;1.20;99.90;;;;;;4994148;28;20175;-90
2021/04/07 06:18:02;;;;;;;12.40;3.20;;;1.20;99.90;;;;;;4995727;28;20624;-92
2021/04/07 06:20:34;;;;;;;13.37;4.00;;;1.20;99.90;;;;;;5013588;28;20166;-91
2021/04/07 06:23:01;;;;;;;10.70;3.30;;;1.20;99.90;;;;;;5010463;28;20166;-94
2021/04/07 06:25:28;;;;;;;9.93;3.23;;;1.20;99.90;;;;;;5012929;28;20173;-90
2021/04/07 06:28:15;;;;;;;8.70;2.50;;;1.20;99.90;;;;;;4996573;28;20205;-93
2021/04/07 06:30:44;;;;;;;10.27;2.73;;;1.30;99.90;;;;;;4993805;28;20178;-93
2021/04/07 06:33:27;;;;;;;12.40;4.73;;;1.40;99.90;;;;;;4993639;28;20174;-91
2021/04/07 06:39:36;;;;;;;11.00;3.10;;;1.30;99.90;;;;;;4995209;28;20171;-91
2021/04/07 06:42:06;;;;;;;10.40;2.87;;;1.30;99.90;;;;;;5004939;28;20679;-93
2021/04/07 06:44:49;;;;;;;12.93;3.27;;;1.40;99.90;;;;;;5013528;28;20700;-93
2021/04/07 06:47:15;;;;;;;7.50;2.80;;;1.50;99.90;;;;;;5013768;28;20623;-93
2021/04/07 06:49:42;;;;;;;9.60;3.23;;;1.50;99.90;;;;;;5013783;28;20264;-91
2021/04/07 06:52:30;;;;;;;13.03;2.83;;;1.50;99.90;;;;;;4999645;28;20206;-94
2021/04/07 06:54:57;;;;;;;8.00;2.87;;;1.60;99.90;;;;;;4994748;28;20194;-92
2021/04/07 06:57:23;;;;;;;8.17;2.90;;;1.60;99.90;;;;;;4995891;28;20230;-91
2021/04/07 06:59:49;;;;;;;5.03;2.33;;;1.60;99.90;;;;;;5000341;28;20183;-92
2021/04/07 07:02:16;;;;;;;11.07;3.27;;;1.60;99.90;;;;;;5007291;28;20614;-91
2021/04/07 07:04:44;;;;;;;11.50;2.60;;;1.70;99.90;;;;;;5017845;28;20206;-94
2021/04/07 07:07:09;;;;;;;11.97;2.80;;;1.70;99.90;;;;;;5014466;28;20269;-92
2021/04/07 07:09:35;;;;;;;8.63;2.50;;;1.70;99.90;;;;;;5014994;28;20210;-93
2021/04/07 07:12:02;;;;;;;11.80;2.77;;;1.70;99.90;;;;;;5014924;28;20271;-91
2021/04/07 07:14:28;;;;;;;12.97;3.23;;;1.80;99.90;;;;;;5014165;28;20176;-93
2021/04/07 07:16:56;;;;;;;11.53;2.83;;;1.80;99.90;;;;;;5012688;28;20198;-92
2021/04/07 07:19:24;;;;;;;11.07;2.70;;;1.80;99.90;;;;;;5012399;28;20219;-92
2021/04/07 07:22:01;;;;;;;9.53;2.60;;;1.80;99.90;;;;;;5013996;28;20717;-91
2021/04/07 07:24:36;;;;;;;9.37;2.70;;;1.80;99.90;;;;;;5016158;28;20611;-91
2021/04/07 07:27:05;;;;;;;9.57;2.13;;;1.90;99.90;;;;;;5016922;28;20175;-92
2021/04/07 07:29:32;;;;;;;8.37;2.50;;;1.90;99.90;;;;;;5015798;28;20185;-91
2021/04/07 07:32:08;;;;;;;9.60;2.60;;;1.90;99.90;;;;;;5015763;28;20197;-92
2021/04/07 07:34:34;;;;;;;6.73;2.30;;;1.90;99.90;;;;;;5016033;28;20197;-90
2021/04/07 07:37:02;;;;;;;7.33;2.20;;;1.90;99.90;;;;;;5016043;28;20175;-94
2021/04/07 07:39:33;;;;;;;9.40;2.23;;;2.00;99.90;;;;;;5016229;28;20182;-94
2021/04/07 07:42:10;;;;;;;8.87;2.87;;;2.00;99.90;;;;;;5016208;28;20548;-92
2021/04/07 07:44:38;;;;;;;6.87;2.13;;;2.00;99.90;;;;;;5015846;28;20198;-94
2021/04/07 07:47:20;;;;;;;10.40;2.27;;;2.00;99.90;;;;;;5016013;28;20635;-91
2021/04/07 07:50:09;;;;;;;8.43;2.50;;;2.00;99.90;;;;;;5015820;28;20230;-93
2021/04/07 07:52:37;;;;;;;11.57;2.23;;;2.00;99.90;;;;;;4996225;28;20703;-94
2021/04/07 07:55:15;;;;;;;9.00;2.30;;;2.10;99.90;;;;;;4998629;28;20179;-94
2021/04/07 07:57:55;;;;;;;3.83;1.97;;;2.10;99.90;;;;;;4997819;28;20274;-94
2021/04/07 08:00:23;;;;;;;9.00;2.33;;;2.30;99.90;;;;;;4996997;28;20189;-91
2021/04/07 08:02:50;;;;;;;11.07;2.30;;;2.30;99.90;;;;;;4996990;28;20208;-93
2021/04/07 08:05:17;;;;;;;10.37;2.00;;;2.20;99.90;;;;;;4996447;28;20259;-92
2021/04/07 08:07:43;;;;;;;6.83;1.70;;;2.30;99.90;;;;;;4996463;28;20176;-91
2021/04/07 08:10:10;;;;;;;5.63;1.93;;;2.30;99.90;;;;;;4996502;28;20625;-92
2021/04/07 08:12:39;;;;;;;10.83;2.07;;;2.20;99.90;;;;;;4996478;28;20228;-93
2021/04/07 08:15:05;;;;;;;6.77;1.93;;;2.20;99.90;;;;;;4995813;28;20218;-93
2021/04/07 08:17:32;;;;;;;7.53;2.47;;;2.20;99.90;;;;;;4996193;28;20190;-94
2021/04/07 08:20:00;;;;;;;6.77;2.03;;;2.30;99.90;;;;;;4996191;28;20189;-94
2021/04/07 08:22:32;;;;;;;10.63;2.20;;;2.30;99.90;;;;;;4996026;28;20208;-93
2021/04/07 08:25:00;;;;;;;4.17;1.63;;;2.30;99.90;;;;;;4996233;28;20210;-93
2021/04/07 08:27:27;;;;;;;7.93;1.67;;;2.30;99.90;;;;;;4995648;28;20172;-92
2021/04/07 08:29:53;;;;;;;3.93;1.90;;;2.30;99.90;;;;;;4996072;28;20168;-93
2021/04/07 08:32:20;;;;;;;9.80;2.20;;;2.30;99.80;;;;;;4995337;28;20557;-93
2021/04/07 08:34:47;;;;;;;7.40;1.73;;;2.30;99.70;;;;;;4995118;28;20620;-93
2021/04/07 08:37:18;;;;;;;7.30;2.27;;;2.40;99.90;;;;;;4996610;28;20171;-93
2021/04/07 08:39:44;;;;;;;8.50;1.90;;;2.40;99.90;;;;;;4999303;28;20172;-93
2021/04/07 08:42:11;;;;;;;8.83;2.33;;;2.50;99.90;;;;;;4998301;28;20230;-93
2021/04/07 08:44:49;;;;;;;9.20;1.73;;;2.50;99.90;;;;;;4997703;28;20256;-91
2021/04/07 08:47:25;;;;;;;5.03;1.67;;;2.50;99.90;;;;;;4997590;28;20261;-92
2021/04/07 08:50:04;;;;;;;8.47;2.17;;;2.60;99.90;;;;;;4996166;28;20278;-93
2021/04/07 08:52:30;;;;;;;10.53;1.90;;;2.70;99.90;;;;;;4995584;28;20679;-92
2021/04/07 08:54:59;;;;;;;3.37;1.80;;;2.70;99.90;;;;;;4995685;28;20187;-92
2021/04/07 08:57:44;;;;;;;5.37;1.80;;;2.80;99.90;;;;;;4995825;28;20195;-92
2021/04/07 09:00:15;;;;;;;4.40;1.53;;;2.90;99.90;;;;;;4996087;28;20194;-93
2021/04/07 09:02:52;;;;;;;4.30;1.50;;;2.90;99.50;;;;;;4994891;28;20212;-92
2021/04/07 09:05:29;;;;;;;4.93;1.60;;;2.90;99.70;;;;;;4998811;28;20219;-94
2021/04/07 09:07:56;;;;;;;6.73;2.00;;;3.00;99.80;;;;;;4996571;28;20195;-92
2021/04/07 09:10:23;;;;;;;6.30;1.77;;;3.00;99.90;;;;;;4997198;28;20262;-92
2021/04/07 09:12:52;;;;;;;6.03;1.80;;;3.00;99.60;;;;;;4995810;28;20231;-92
2021/04/07 09:15:21;;;;;;;7.57;1.87;;;3.00;99.90;;;;;;4996160;28;20191;-93
2021/04/07 09:17:58;;;;;;;5.57;1.93;;;3.00;99.90;;;;;;4996321;28;20215;-91
2021/04/07 09:20:38;;;;;;;4.37;1.90;;;3.20;99.90;;;;;;4996319;28;20176;-93
2021/04/07 09:23:21;;;;;;;10.50;2.20;;;3.10;99.90;;;;;;4995418;28;20180;-93
2021/04/07 09:25:50;;;;;;;10.23;2.20;;;3.20;99.90;;;;;;4996506;28;20171;-92
2021/04/07 09:28:17;;;;;;;9.10;2.50;;;3.20;99.90;;;;;;4995837;28;20172;-94
2021/04/07 09:30:48;;;;;;;6.73;2.20;;;3.30;99.90;;;;;;4996452;28;20658;-91
2021/04/07 09:33:16;;;;;;;7.13;2.40;;;3.50;99.90;;;;;;4996096;28;20238;-94
2021/04/07 09:35:59;;;;;;;6.03;2.37;;;3.50;99.40;;;;;;4995558;28;20172;-92
2021/04/07 09:38:27;;;;;;;7.80;2.70;;;3.60;99.30;;;;;;4996485;28;20171;-94
2021/04/07 09:41:18;;;;;;;8.50;2.73;;;3.60;99.90;;;;;;4996070;28;20198;-93
2021/04/07 09:43:44;;;;;;;5.13;2.60;;;3.50;99.50;;;;;;5006709;28;20198;-94
2021/04/07 09:46:10;;;;;;;5.67;2.50;;;3.50;99.90;;;;;;5015309;28;20163;-91
2021/04/07 09:48:48;;;;;;;6.70;2.80;;;3.60;99.90;;;;;;5014661;28;20293;-94
2021/04/07 09:51:28;;;;;;;6.33;2.60;;;3.70;99.90;;;;;;5015203;28;20195;-94
2021/04/07 09:54:12;;;;;;;6.30;2.60;;;3.70;99.90;;;;;;5015109;28;20230;-92
2021/04/07 09:56:49;;;;;;;6.50;2.73;;;3.70;99.80;;;;;;5014598;28;20210;-94
2021/04/07 09:59:16;;;;;;;5.03;2.30;;;3.70;99.90;;;;;;5014211;28;20191;-94
2021/04/07 10:01:42;;;;;;;7.00;2.70;;;3.70;99.60;;;;;;4998788;28;20208;-94
2021/04/07 10:04:09;;;;;;;7.37;2.40;;;3.80;99.80;;;;;;4994976;28;20250;-93
2021/04/07 10:06:35;;;;;;;5.30;2.70;;;3.70;99.30;;;;;;4994727;28;20180;-92
2021/04/07 10:09:07;;;;;;;6.00;3.07;;;3.70;99.40;;;;;;4994761;28;20712;-93
2021/04/07 10:11:38;;;;;;;8.07;2.70;;;3.70;99.60;;;;;;4994946;28;20250;-92
2021/04/07 10:14:04;;;;;;;7.87;2.87;;;3.70;99.30;;;;;;4994518;28;20176;-94
2021/04/07 10:16:51;;;;;;;4.10;2.47;;;3.70;99.60;;;;;;5028815;28;20262;-92
2021/04/07 10:19:32;;;;;;;4.13;2.50;;;3.70;99.70;;;;;;5034693;28;20175;-94
2021/04/07 10:22:00;;;;;;;5.60;2.53;;;3.70;99.90;;;;;;5034847;28;20298;-94
2021/04/07 10:24:26;;;;;;;6.13;2.80;;;3.70;99.20;;;;;;5034381;28;20310;-93
2021/04/07 10:26:52;;;;;;;4.37;3.20;;;3.70;99.10;;;;;;5034588;28;20226;-91
2021/04/07 10:29:23;;;;;;;5.50;3.57;;;3.60;99.30;;;;;;5033568;28;20175;-92
2021/04/07 10:31:58;;;;;;;6.73;3.50;;;3.60;99.70;;;;;;5033889;28;20204;-92
2021/04/07 10:34:36;;;;;;;5.60;3.80;;;3.60;99.60;;;;;;5034098;28;20177;-94
2021/04/07 10:37:03;;;;;;;4.90;4.00;;;3.60;99.70;;;;;;5034563;28;20257;-92
2021/04/07 10:39:36;;;;;;;5.37;3.83;;;3.60;99.30;;;;;;5034502;28;20245;-93
2021/04/07 10:42:02;;;;;;;5.93;4.30;;;3.70;99.40;;;;;;5034917;28;20234;-93
2021/04/07 10:44:32;;;;;;;5.87;4.37;;;3.70;99.10;;;;;;5034057;28;20197;-92
2021/04/07 10:46:58;;;;;;;6.23;4.90;;;3.80;99.20;;;;;;5014930;28;20248;-94
2021/04/07 10:49:25;;;;;;;6.20;5.20;;;3.90;99.30;;;;;;5015499;28;20228;-93
2021/04/07 10:52:09;;;;;;;10.37;5.20;;;3.90;98.60;;;;;;5014762;28;20207;-92
2021/04/07 10:54:35;;;;;;;8.17;5.53;;;3.90;98.50;;;;;;5015082;28;20182;-91
2021/04/07 10:57:07;;;;;;;9.33;6.10;;;3.90;99.00;;;;;;5016659;28;20190;-93
2021/04/07 10:59:34;;;;;;;9.20;6.17;;;3.90;98.70;;;;;;5017655;28;20693;-93
2021/04/07 11:02:15;;;;;;;7.20;5.80;;;3.90;98.90;;;;;;5018401;28;20206;-94
2021/04/07 11:04:42;;;;;;;7.57;6.37;;;3.80;98.70;;;;;;5017480;28;20211;-92
2021/04/07 11:07:12;;;;;;;7.30;6.20;;;3.90;99.20;;;;;;5015026;28;20216;-92
2021/04/07 11:09:46;;;;;;;8.50;6.43;;;3.90;98.90;;;;;;4998233;28;20168;-92
2021/04/07 11:12:15;;;;;;;9.57;7.20;;;4.00;98.40;;;;;;4998506;28;20207;-92
2021/04/07 11:14:48;;;;;;;8.43;6.80;;;4.00;98.60;;;;;;4998786;28;20172;-93
2021/04/07 11:17:15;;;;;;;9.40;7.33;;;4.10;98.90;;;;;;5015538;28;20187;-93
2021/04/07 11:19:41;;;;;;;10.23;7.30;;;4.10;98.30;;;;;;4998214;28;20180;-93
2021/04/07 11:22:08;;;;;;;11.30;7.33;;;4.10;98.50;;;;;;4999088;28;20204;-94
2021/04/07 11:24:36;;;;;;;8.53;6.80;;;4.10;98.40;;;;;;4998463;28;20211;-93
2021/04/07 11:27:02;;;;;;;9.50;7.40;;;4.10;98.30;;;;;;4998634;28;20178;-95
2021/04/07 11:29:30;;;;;;;10.03;7.80;;;4.10;98.20;;;;;;4998370;28;20204;-94
2021/04/07 11:31:59;;;;;;;10.57;7.97;;;4.00;98.30;;;;;;4999092;28;20200;-93
2021/04/07 11:37:31;;;;;;;8.80;7.10;;;4.00;98.30;;;;;;4963691;28;20217;-95
2021/04/07 11:40:03;;;;;;;9.57;7.87;;;4.00;98.30;;;;;;4998903;28;20222;-93
2021/04/07 11:42:32;;;;;;;10.23;7.83;;;4.00;98.80;;;;;;4998288;28;20209;-93
2021/04/07 11:44:59;;;;;;;9.67;7.93;;;4.00;99.10;;;;;;4997229;28;20303;-92
2021/04/07 11:47:25;;;;;;;10.40;8.17;;;4.10;99.00;;;;;;4998768;28;20180;-93
2021/04/07 11:49:51;;;;;;;10.87;8.17;;;4.20;98.70;;;;;;4998266;28;20233;-93
2021/04/07 11:52:17;;;;;;;9.93;8.27;;;4.30;98.70;;;;;;4998280;28;20264;-91
2021/04/07 11:54:45;;;;;;;10.10;8.13;;;4.30;98.60;;;;;;4997746;28;20245;-94
2021/04/07 11:57:11;;;;;;;8.83;7.63;;;4.30;98.40;;;;;;4998301;28;20625;-91
2021/04/07 11:59:37;;;;;;;9.20;7.87;;;4.30;98.80;;;;;;4997908;28;20183;-92
2021/04/07 12:02:04;;;;;;;10.27;7.27;;;4.40;98.50;;;;;;4997024;28;20246;-92
2021/04/07 12:04:31;;;;;;;12.93;7.47;;;4.40;98.00;;;;;;4997093;28;20199;-91
2021/04/07 12:06:57;;;;;;;8.57;7.17;;;4.50;98.20;;;;;;4997127;28;20200;-94
2021/04/07 12:09:24;;;;;;;7.47;6.60;;;4.50;98.20;;;;;;4997885;28;20239;-94
2021/04/07 12:11:50;;;;;;;10.60;7.60;;;4.50;97.90;;;;;;4997574;28;20233;-92
2021/04/07 12:14:15;;;;;;;8.53;7.10;;;4.50;97.90;;;;;;4996976;28;20169;-93
2021/04/07 12:16:42;;;;;;;8.80;6.90;;;4.50;98.30;;;;;;4996959;28;20248;-92
2021/04/07 12:19:09;;;;;;;7.67;6.87;;;4.50;98.00;;;;;;4996913;28;20322;-91
2021/04/07 12:21:37;;;;;;;7.70;6.50;;;4.50;98.40;;;;;;4996591;28;20204;-94
2021/04/07 12:24:05;;;;;;;8.37;6.77;;;4.50;98.00;;;;;;4996793;28;20279;-94
2021/04/07 12:26:31;;;;;;;9.77;7.37;;;4.70;98.00;;;;;;4997216;28;20172;-92
2021/04/07 12:28:57;;;;;;;7.90;7.03;;;4.80;98.10;;;;;;4996924;28;20168;-91
2021/04/07 12:31:23;;;;;;;9.03;7.73;;;4.80;97.60;;;;;;4996753;28;20208;-92
2021/04/07 12:33:54;;;;;;;11.67;8.20;;;4.90;97.80;;;;;;4996987;28;20178;-92
2021/04/07 12:36:23;;;;;;;11.80;8.37;;;5.00;97.80;;;;;;4997047;28;20640;-94
2021/04/07 12:38:52;;;;;;;8.50;7.33;;;5.00;97.70;;;;;;4996221;28;20274;-93
2021/04/07 12:41:23;;;;;;;10.60;7.57;;;5.20;98.00;;;;;;4996529;28;20214;-92
2021/04/07 12:43:49;;;;;;;10.73;8.10;;;5.50;98.00;;;;;;5004682;28;20198;-94
2021/04/07 12:46:17;;;;;;;8.53;6.80;;;5.90;98.00;;;;;;5016046;28;20172;-94
2021/04/07 12:48:47;;;;;;;8.00;7.10;;;6.10;96.70;;;;;;5017410;28;20223;-93
2021/04/07 12:51:14;;;;;;;7.80;6.70;;;6.30;96.80;;;;;;5017476;28;20206;-92
2021/04/07 12:53:40;;;;;;;8.47;6.90;;;6.30;96.20;;;;;;5017064;28;20190;-91
2021/04/07 12:56:08;;;;;;;8.57;6.67;;;6.20;96.30;;;;;;5016085;28;20175;-91
2021/04/07 12:58:33;;;;;;;8.90;7.53;;;6.00;95.90;;;;;;5016559;28;20255;-92
2021/04/07 13:00:59;;;;;;;10.17;7.80;;;5.90;96.50;;;;;;5015251;28;20202;-92
2021/04/07 13:03:25;;;;;;;9.17;7.93;;;5.90;97.10;;;;;;5015791;28;20207;-92
2021/04/07 13:05:51;;;;;;;7.87;7.07;;;5.80;97.40;;;;;;5016589;28;20186;-90
2021/04/07 13:08:17;;;;;;;8.80;7.80;;;5.70;97.30;;;;;;5015461;28;20183;-92
2021/04/07 13:10:42;;;;;;;9.43;7.93;;;5.60;97.30;;;;;;5015533;28;20236;-95